aviador You're here:

KEUG Decoded Metar

EUGENE in OR, USA
Report Time2017-05-30 10:54:00
UTC Time2017-05-30 11:14:00
Flight Rules mvfr MVFR
Wind220° at 06 kt
W.Decomp.*RWY 16: 4.3 kt HW 4.2 kt RCW
W.Rank220° ranks 9
Current wind is below 220° avg. (6.6)
Visibility9656 m
Phenomena:Mist
Clouds:Overcast 014 Hf
Ceiling1,400 ft
Temp11°C (ISA -3)
Dew Point11°C (100% RH)
AAT9.2°C
QNH1016 hPa
Density Alt62 ft
Elevation374 ft
Report Wrong Elevation
Raw Report
KEUG 301054Z 22006KT 6SM BR OVC014 11/11 A2999 RMK AO2 SLP156
T01110111=

Extra information for KEUG:More info

Metar Taf Metar & Taf Last 4 Metars F.Rules Stats Wind Profile Meteogram Temp Stats Airport Information Weather charts Add Link Nearby VenuesMetar ALERT Operation Metar Decoded Social comments

AIRNAV info for KEUG